Swaffham, United Kingdom
Current Conditions -  °F | °C
As of 5:56 PM on Monday 24 Nov 2014 (Local Time) from EGYM Reporting Station
Moderate Fog Moderate Fog  
Wind Chill: 36°   Ceiling: Unl
Heat Index: 36°   Visibility: 0.37mi
Dew Point: 36°   Wind: 2mph
Humidity: 100%   Direction: 200°SSW
Pressure: 30.33"   Gusts: NA
Location:  52.65°N, 0.69°E
Report Text: EGYM 241756Z 20002KT 0600 FG FEW002 02/02 Q1027 RED NOSIG
Loading
Personal Weather Stations






























Interactive Weather Map New forecast layout! Learn more

10-Day Weather Forecast

Advertisements
Track Severe Weather on mobile